createdAt,value
2019-03-26T00:00:08.236Z,15.35
2019-03-26T00:02:41.001Z,19.92
2019-03-26T00:05:12.279Z,16.40
2019-03-26T00:07:43.408Z,19.65
2019-03-26T00:10:14.552Z,14.80
2019-03-26T00:12:45.761Z,10.30
2019-03-26T00:15:17.009Z,11.25
2019-03-26T00:17:48.281Z,17.48
2019-03-26T00:20:19.858Z,20.48
2019-03-26T00:22:51.086Z,16.75
2019-03-26T00:25:22.227Z,16.07
2019-03-26T00:27:53.372Z,20.53
2019-03-26T00:30:24.511Z,18.10
2019-03-26T00:32:55.780Z,15.80
2019-03-26T00:35:26.978Z,17.07
2019-03-26T00:37:58.246Z,12.88
2019-03-26T00:40:29.463Z,15.53
2019-03-26T00:43:00.755Z,16.87
2019-03-26T00:45:34.623Z,15.80
2019-03-26T00:48:05.860Z,18.67
2019-03-26T00:50:37.070Z,12.80
2019-03-26T00:53:08.278Z,21.02
2019-03-26T00:55:39.661Z,40.88
2019-03-26T00:58:11.012Z,43.73
2019-03-26T01:00:42.820Z,26.20
2019-03-26T01:03:14.143Z,17.17
2019-03-26T01:05:45.265Z,19.65
2019-03-26T01:08:16.523Z,22.95
2019-03-26T01:10:47.720Z,25.80
2019-03-26T01:13:19.066Z,18.35
2019-03-26T01:15:50.526Z,15.43
2019-03-26T01:18:21.783Z,22.48
2019-03-26T01:20:53.153Z,15.10
2019-03-26T01:23:24.381Z,19.67
2019-03-26T01:25:55.704Z,14.75
2019-03-26T01:28:26.925Z,19.00
2019-03-26T01:30:58.162Z,14.98
2019-03-26T01:33:29.410Z,17.85
2019-03-26T01:36:00.672Z,20.72
2019-03-26T01:38:31.757Z,15.78
2019-03-26T01:41:03.419Z,18.57
2019-03-26T01:43:34.666Z,17.17
2019-03-26T01:46:06.021Z,17.52
2019-03-26T01:48:37.353Z,16.45
2019-03-26T01:51:09.119Z,19.05
2019-03-26T01:53:41.016Z,19.85
2019-03-26T01:56:13.104Z,20.27
2019-03-26T01:58:45.179Z,18.55
2019-03-26T02:01:16.450Z,20.15
2019-03-26T02:03:47.747Z,17.12
2019-03-26T02:06:18.954Z,18.77
2019-03-26T02:08:50.266Z,18.90
2019-03-26T02:11:21.499Z,12.98
2019-03-26T02:13:52.578Z,19.87
2019-03-26T02:16:23.779Z,18.07
2019-03-26T02:18:55.007Z,23.73
2019-03-26T02:21:26.246Z,18.45
2019-03-26T02:23:57.542Z,15.72
2019-03-26T02:26:28.804Z,19.82
2019-03-26T02:29:00.069Z,18.25
2019-03-26T02:31:31.390Z,24.63
2019-03-26T02:34:02.625Z,20.27
2019-03-26T02:36:33.838Z,15.38
2019-03-26T02:39:06.601Z,16.42
2019-03-26T02:41:38.284Z,20.50
2019-03-26T02:44:09.714Z,17.20
2019-03-26T02:46:40.963Z,16.57
2019-03-26T02:49:13.298Z,16.40
2019-03-26T02:51:44.508Z,18.00
2019-03-26T02:54:15.829Z,12.10
2019-03-26T02:56:46.971Z,20.55
2019-03-26T02:59:18.273Z,15.95
2019-03-26T03:01:49.858Z,16.40
2019-03-26T03:04:21.069Z,19.05
2019-03-26T03:06:52.395Z,18.60
2019-03-26T03:09:24.954Z,19.07
2019-03-26T03:11:56.327Z,20.68
2019-03-26T03:14:27.661Z,17.92
2019-03-26T03:16:59.883Z,18.77
2019-03-26T03:22:01.447Z,18.27
2019-03-26T03:24:32.632Z,15.65
2019-03-26T03:27:03.846Z,20.08
2019-03-26T03:29:35.116Z,12.33
2019-03-26T03:32:06.477Z,14.65
2019-03-26T03:34:37.823Z,13.03
2019-03-26T03:37:09.047Z,18.00
2019-03-26T03:39:40.265Z,18.37
2019-03-26T03:42:11.508Z,14.63
2019-03-26T03:44:42.711Z,16.73
2019-03-26T03:47:13.950Z,21.17
2019-03-26T03:49:45.140Z,15.63
2019-03-26T03:52:16.456Z,19.48
2019-03-26T03:54:47.661Z,15.43
2019-03-26T03:57:19.138Z,15.15
2019-03-26T03:59:50.385Z,22.58
2019-03-26T04:02:21.707Z,16.97
2019-03-26T04:04:52.863Z,15.38
2019-03-26T04:07:24.207Z,17.80
2019-03-26T04:09:55.583Z,20.52
2019-03-26T04:12:26.910Z,17.15
2019-03-26T04:14:58.108Z,22.95
2019-03-26T04:17:29.343Z,26.30
2019-03-26T04:20:00.651Z,11.93
2019-03-26T04:22:31.920Z,16.87
2019-03-26T04:25:03.135Z,19.17
2019-03-26T04:27:36.082Z,22.40
2019-03-26T04:30:08.206Z,20.02
2019-03-26T04:35:09.797Z,22.77
2019-03-26T04:37:41.061Z,21.52
2019-03-26T04:40:12.347Z,18.57
2019-03-26T04:42:43.614Z,20.23
2019-03-26T04:45:14.959Z,27.10
2019-03-26T04:47:46.210Z,25.05
2019-03-26T04:50:17.636Z,27.35
2019-03-26T04:52:49.010Z,28.47
2019-03-26T04:55:20.375Z,15.93
2019-03-26T04:57:51.802Z,21.48
2019-03-26T05:00:23.017Z,23.10
2019-03-26T05:02:54.157Z,21.42
2019-03-26T05:05:25.627Z,32.17
2019-03-26T05:07:57.039Z,25.25
2019-03-26T05:10:28.403Z,27.27
2019-03-26T05:12:59.797Z,25.85
2019-03-26T05:15:31.003Z,25.60
2019-03-26T05:18:02.309Z,26.33
2019-03-26T05:20:33.696Z,20.88
2019-03-26T05:23:08.102Z,20.85
2019-03-26T05:25:39.496Z,23.67
2019-03-26T05:28:10.821Z,20.97
2019-03-26T05:30:42.151Z,23.80
2019-03-26T05:33:13.513Z,29.40
2019-03-26T05:35:44.802Z,23.70
2019-03-26T05:38:16.099Z,25.45
2019-03-26T05:40:47.420Z,34.20
2019-03-26T05:43:18.708Z,37.93
2019-03-26T05:45:52.027Z,23.65
2019-03-26T05:48:23.433Z,22.95
2019-03-26T05:50:54.641Z,26.40
2019-03-26T05:53:25.924Z,26.27
2019-03-26T05:55:57.198Z,27.27
2019-03-26T05:58:28.544Z,22.20
2019-03-26T06:00:59.863Z,21.77
2019-03-26T06:03:31.261Z,30.12
2019-03-26T06:06:02.666Z,35.30
2019-03-26T06:08:34.124Z,26.85
2019-03-26T06:11:05.370Z,29.05
2019-03-26T06:13:36.751Z,24.65
2019-03-26T06:16:08.134Z,25.85
2019-03-26T06:18:39.479Z,23.60
2019-03-26T06:21:10.779Z,21.85
2019-03-26T06:23:43.644Z,27.17
2019-03-26T06:26:14.953Z,21.48
2019-03-26T06:28:46.376Z,32.08
2019-03-26T06:31:17.698Z,31.20
2019-03-26T06:33:49.024Z,34.92
2019-03-26T06:36:20.287Z,38.98
2019-03-26T06:38:51.546Z,31.68
2019-03-26T06:41:23.014Z,42.20
2019-03-26T06:43:55.450Z,40.08
2019-03-26T06:46:26.728Z,47.65
2019-03-26T06:48:58.121Z,44.40
2019-03-26T06:51:29.418Z,35.28
2019-03-26T06:54:00.803Z,42.53
2019-03-26T06:56:32.128Z,38.53
2019-03-26T06:59:03.532Z,39.75
2019-03-26T07:01:34.837Z,45.55
2019-03-26T07:04:06.222Z,32.55
2019-03-26T07:06:37.760Z,42.03
2019-03-26T07:09:09.143Z,42.53
2019-03-26T07:11:40.791Z,51.73
2019-03-26T07:14:12.148Z,46.77
2019-03-26T07:16:43.555Z,46.28
2019-03-26T07:19:14.969Z,53.08
2019-03-26T07:21:49.802Z,49.65
2019-03-26T07:24:19.432Z,57.95
2019-03-26T07:26:50.798Z,51.95
2019-03-26T07:29:22.255Z,49.90
2019-03-26T07:31:53.571Z,34.23
2019-03-26T07:34:24.894Z,48.98
2019-03-26T07:36:56.395Z,59.40
2019-03-26T07:39:27.708Z,52.10
2019-03-26T07:41:59.225Z,63.68
2019-03-26T07:44:30.546Z,66.33
2019-03-26T07:47:01.888Z,59.75
2019-03-26T07:49:33.192Z,53.33
2019-03-26T07:52:04.533Z,53.98
2019-03-26T07:54:35.922Z,83.85
2019-03-26T07:57:07.296Z,73.60
2019-03-26T07:59:38.652Z,48.13
2019-03-26T08:02:10.062Z,52.60
2019-03-26T08:04:41.499Z,76.75
2019-03-26T08:07:12.831Z,77.90
2019-03-26T08:09:44.141Z,63.42
2019-03-26T08:12:15.594Z,67.87
2019-03-26T08:14:46.959Z,61.37
2019-03-26T08:17:18.292Z,69.27
2019-03-26T08:19:49.632Z,68.35
2019-03-26T08:22:21.058Z,70.52
2019-03-26T08:24:52.469Z,70.40
2019-03-26T08:27:23.809Z,74.07
2019-03-26T08:29:55.143Z,75.78
2019-03-26T08:32:26.451Z,73.83
2019-03-26T08:34:57.808Z,77.97
2019-03-26T08:37:29.180Z,70.10
2019-03-26T08:40:00.503Z,67.97
2019-03-26T08:42:31.754Z,75.12
2019-03-26T08:45:03.122Z,72.82
2019-03-26T08:47:34.505Z,85.90
2019-03-26T08:50:08.548Z,69.45
2019-03-26T08:52:39.805Z,123.05
2019-03-26T08:55:11.657Z,131.97
2019-03-26T08:57:43.016Z,82.27
2019-03-26T09:00:14.380Z,78.75
2019-03-26T09:02:45.668Z,71.65
2019-03-26T09:05:17.111Z,78.02
2019-03-26T09:07:48.351Z,76.65
2019-03-26T09:10:19.669Z,94.20
2019-03-26T09:12:51.010Z,99.40
2019-03-26T09:15:22.377Z,102.20
2019-03-26T09:17:53.696Z,98.85
2019-03-26T09:20:25.037Z,106.40
2019-03-26T09:22:56.408Z,111.75
2019-03-26T09:25:27.752Z,104.92
2019-03-26T09:27:59.002Z,111.80
2019-03-26T09:30:30.315Z,125.40
2019-03-26T09:33:01.586Z,117.47
2019-03-26T09:35:32.974Z,105.58
2019-03-26T09:38:04.303Z,118.02
2019-03-26T09:40:35.611Z,118.37
2019-03-26T09:43:06.919Z,127.15
2019-03-26T09:45:38.196Z,126.05
2019-03-26T09:48:09.571Z,125.65
2019-03-26T09:50:40.886Z,127.78
2019-03-26T09:53:12.219Z,129.00
2019-03-26T09:55:44.941Z,132.95
2019-03-26T09:58:16.386Z,132.90
2019-03-26T10:00:49.842Z,121.62
2019-03-26T10:03:22.582Z,124.38
2019-03-26T10:05:53.873Z,103.75
2019-03-26T10:08:25.112Z,107.97
2019-03-26T10:10:56.361Z,121.82
2019-03-26T10:13:27.734Z,114.12
2019-03-26T10:15:59.238Z,121.75
2019-03-26T10:18:31.769Z,106.52
2019-03-26T10:21:03.166Z,59.95
2019-03-26T10:23:34.538Z,73.57
2019-03-26T10:26:05.962Z,86.08
2019-03-26T10:28:37.253Z,95.22
2019-03-26T10:31:08.596Z,82.70
2019-03-26T10:33:39.967Z,86.82
2019-03-26T10:36:11.350Z,100.87
2019-03-26T10:38:42.641Z,96.53
2019-03-26T10:41:14.058Z,108.52
2019-03-26T10:43:45.411Z,129.05
2019-03-26T10:46:16.780Z,132.05
2019-03-26T10:48:48.098Z,118.45
2019-03-26T10:51:19.508Z,123.35
2019-03-26T10:53:50.858Z,126.62
2019-03-26T10:56:22.223Z,120.95
2019-03-26T10:58:53.675Z,124.40
2019-03-26T11:01:25.101Z,94.00
2019-03-26T11:03:56.380Z,91.32
2019-03-26T11:06:27.710Z,90.87
2019-03-26T11:08:59.064Z,85.85
2019-03-26T11:11:30.568Z,95.50
2019-03-26T11:14:01.825Z,88.45
2019-03-26T11:16:33.157Z,93.65
2019-03-26T11:19:05.467Z,84.85
2019-03-26T11:21:36.798Z,80.67
2019-03-26T11:24:08.059Z,77.15
2019-03-26T11:26:39.399Z,69.15
2019-03-26T11:29:10.786Z,70.47
2019-03-26T11:31:42.099Z,71.57
2019-03-26T11:34:13.493Z,69.72
2019-03-26T11:36:44.721Z,53.55
2019-03-26T11:39:16.061Z,48.33
2019-03-26T11:41:47.416Z,49.40
2019-03-26T11:44:18.774Z,40.60
2019-03-26T11:46:50.206Z,43.00
2019-03-26T11:49:21.608Z,39.38
2019-03-26T11:51:52.949Z,44.58
2019-03-26T11:54:24.295Z,42.23
2019-03-26T11:56:55.724Z,43.50
2019-03-26T11:59:27.039Z,38.73
2019-03-26T12:01:59.443Z,42.30
2019-03-26T12:04:30.775Z,45.90
2019-03-26T12:07:02.293Z,44.48
2019-03-26T12:09:45.530Z,36.75
2019-03-26T12:12:06.959Z,35.23
2019-03-26T12:14:38.396Z,30.27
2019-03-26T12:17:09.742Z,36.30
2019-03-26T12:19:41.066Z,46.18
2019-03-26T12:22:12.295Z,46.00
2019-03-26T12:24:43.641Z,43.02
2019-03-26T12:27:15.027Z,38.75
2019-03-26T12:29:46.357Z,41.37
2019-03-26T12:32:17.737Z,36.70
2019-03-26T12:34:49.090Z,31.87
2019-03-26T12:37:20.414Z,34.73
2019-03-26T12:39:59.275Z,45.00
2019-03-26T12:42:24.886Z,32.55
2019-03-26T12:44:56.239Z,33.70
2019-03-26T12:47:27.590Z,35.92
2019-03-26T12:49:58.944Z,37.50
2019-03-26T12:52:30.209Z,50.35
2019-03-26T12:55:01.546Z,38.83
2019-03-26T12:57:32.964Z,41.25
2019-03-26T13:00:05.897Z,37.45
2019-03-26T13:02:37.208Z,39.88
2019-03-26T13:05:08.647Z,40.78
2019-03-26T13:07:39.971Z,35.45
2019-03-26T13:10:13.762Z,33.80
2019-03-26T13:12:44.755Z,41.00
2019-03-26T13:15:17.076Z,40.55
2019-03-26T13:17:48.422Z,40.28
2019-03-26T13:20:19.788Z,33.48
2019-03-26T13:22:51.265Z,32.30
2019-03-26T13:25:22.596Z,26.42
2019-03-26T13:27:53.835Z,26.00
2019-03-26T13:30:25.290Z,28.57
2019-03-26T13:32:56.554Z,29.50
2019-03-26T13:35:27.975Z,30.32
2019-03-26T13:37:59.341Z,28.12
2019-03-26T13:40:30.606Z,29.40
2019-03-26T13:43:01.943Z,28.90
2019-03-26T13:45:33.428Z,31.35
2019-03-26T13:48:04.758Z,29.70
2019-03-26T13:50:36.077Z,26.75
2019-03-26T13:53:07.326Z,33.05
2019-03-26T13:55:38.804Z,34.43
2019-03-26T13:58:10.119Z,32.10
2019-03-26T14:00:41.471Z,31.17
2019-03-26T14:03:12.816Z,30.60
2019-03-26T14:05:44.050Z,31.37
2019-03-26T14:08:15.377Z,25.55
2019-03-26T14:10:46.684Z,31.10
2019-03-26T14:13:18.114Z,31.90
2019-03-26T14:15:49.475Z,32.30
2019-03-26T14:18:20.889Z,28.20
2019-03-26T14:20:52.163Z,36.23
2019-03-26T14:23:23.523Z,36.13
2019-03-26T14:25:56.209Z,212.97
2019-03-26T14:28:27.653Z,77.35
2019-03-26T14:30:59.123Z,46.63
2019-03-26T14:33:30.364Z,36.75
2019-03-26T14:36:01.727Z,35.08
2019-03-26T14:38:33.076Z,44.90
2019-03-26T14:41:04.388Z,59.03
2019-03-26T14:43:35.737Z,45.15
2019-03-26T14:46:07.079Z,48.58
2019-03-26T14:48:39.171Z,33.67
2019-03-26T14:51:10.578Z,32.67
2019-03-26T14:53:41.908Z,35.25
2019-03-26T14:56:13.321Z,205.70
2019-03-26T14:58:44.708Z,37.98
2019-03-26T15:01:16.158Z,45.58
2019-03-26T15:03:47.465Z,53.58
2019-03-26T15:06:18.779Z,119.57
2019-03-26T15:08:51.514Z,48.70
2019-03-26T15:11:22.809Z,42.53
2019-03-26T15:13:54.127Z,49.58
2019-03-26T15:16:26.572Z,56.90
2019-03-26T15:18:57.955Z,65.67
2019-03-26T15:21:29.317Z,43.65
2019-03-26T15:24:00.653Z,52.17
2019-03-26T15:26:31.978Z,45.88
2019-03-26T15:29:03.317Z,45.75
2019-03-26T15:31:34.624Z,42.05
2019-03-26T15:34:05.944Z,41.37
2019-03-26T15:36:37.281Z,41.53
2019-03-26T15:39:09.313Z,43.92
2019-03-26T15:44:10.938Z,43.33
2019-03-26T15:46:42.196Z,44.38
2019-03-26T15:49:13.475Z,53.90
2019-03-26T15:51:44.795Z,52.90
2019-03-26T15:54:16.197Z,46.42
2019-03-26T15:56:47.539Z,49.48
2019-03-26T15:59:18.922Z,59.08
2019-03-26T16:01:51.302Z,53.73
2019-03-26T16:04:22.649Z,52.80
2019-03-26T16:06:53.949Z,49.25
2019-03-26T16:09:25.273Z,53.00
2019-03-26T16:11:56.645Z,44.45
2019-03-26T16:14:28.361Z,51.85
2019-03-26T16:16:59.641Z,51.45
2019-03-26T16:19:32.848Z,42.62
2019-03-26T16:22:06.471Z,43.10
2019-03-26T16:24:39.874Z,49.10
2019-03-26T16:27:12.667Z,51.13
2019-03-26T16:29:44.049Z,47.60
2019-03-26T16:32:15.314Z,45.35
2019-03-26T16:34:46.599Z,54.35
2019-03-26T16:37:18.085Z,43.15
2019-03-26T16:39:49.423Z,41.10
2019-03-26T16:42:20.806Z,41.73
2019-03-26T16:44:52.136Z,37.35
2019-03-26T16:47:23.466Z,45.55
2019-03-26T16:49:54.817Z,46.45
2019-03-26T16:52:26.708Z,42.80
2019-03-26T16:54:58.328Z,41.85
2019-03-26T16:57:29.727Z,42.95
2019-03-26T17:00:01.075Z,42.58
2019-03-26T17:02:34.094Z,58.85
2019-03-26T17:05:06.537Z,52.85
2019-03-26T17:07:37.799Z,60.95
2019-03-26T17:10:09.204Z,52.30
2019-03-26T17:12:40.525Z,48.98
2019-03-26T17:15:11.848Z,51.73
2019-03-26T17:17:43.128Z,52.08
2019-03-26T17:20:14.558Z,59.27
2019-03-26T17:22:45.949Z,52.73
2019-03-26T17:25:17.324Z,57.08
2019-03-26T17:27:49.174Z,35.90
2019-03-26T17:30:20.411Z,60.50
2019-03-26T17:32:51.796Z,54.20
2019-03-26T17:35:23.094Z,52.78
2019-03-26T17:37:59.810Z,51.95
2019-03-26T17:40:27.557Z,50.20
2019-03-26T17:42:58.879Z,48.70
2019-03-26T17:45:30.159Z,53.02
2019-03-26T17:48:01.498Z,57.20
2019-03-26T17:50:32.847Z,56.05
2019-03-26T17:53:04.157Z,52.13
2019-03-26T17:55:35.476Z,55.65
2019-03-26T17:58:06.847Z,59.10
2019-03-26T18:00:40.995Z,54.18
2019-03-26T18:03:25.753Z,51.83
2019-03-26T18:05:45.437Z,52.00
2019-03-26T18:08:16.747Z,55.45
2019-03-26T18:10:48.113Z,53.02
2019-03-26T18:13:19.490Z,53.40
2019-03-26T18:15:50.901Z,51.18
2019-03-26T18:18:23.669Z,53.65
2019-03-26T18:20:54.942Z,56.25
2019-03-26T18:23:26.365Z,36.65
2019-03-26T18:25:57.687Z,51.00
2019-03-26T18:28:29.092Z,53.75
2019-03-26T18:31:00.493Z,47.10
2019-03-26T18:33:31.915Z,42.45
2019-03-26T18:36:03.168Z,46.98
2019-03-26T18:38:34.584Z,45.65
2019-03-26T18:41:05.993Z,39.58
2019-03-26T18:43:37.393Z,40.60
2019-03-26T18:46:08.838Z,50.10
2019-03-26T18:48:41.649Z,46.33
2019-03-26T18:51:13.180Z,43.65
2019-03-26T18:53:44.572Z,43.98
2019-03-26T18:56:16.009Z,38.58
2019-03-26T18:58:47.379Z,40.43
2019-03-26T19:01:18.767Z,47.25
2019-03-26T19:03:50.093Z,30.05
2019-03-26T19:06:21.420Z,50.73
2019-03-26T19:08:53.588Z,46.60
2019-03-26T19:11:24.916Z,47.65
2019-03-26T19:13:56.237Z,37.75
2019-03-26T19:16:27.610Z,44.10
2019-03-26T19:18:58.971Z,40.40
2019-03-26T19:21:30.324Z,46.90
2019-03-26T19:24:04.624Z,61.53
2019-03-26T19:26:36.293Z,85.72
2019-03-26T19:29:07.694Z,153.23
2019-03-26T19:31:39.101Z,49.05
2019-03-26T19:34:10.471Z,53.85
2019-03-26T19:36:41.778Z,88.78
2019-03-26T19:39:13.122Z,48.48
2019-03-26T19:41:44.432Z,46.13
2019-03-26T19:44:15.758Z,43.52
2019-03-26T19:46:47.174Z,59.15
2019-03-26T19:49:18.430Z,50.35
2019-03-26T19:51:49.754Z,44.83
2019-03-26T19:54:21.134Z,51.58
2019-03-26T19:56:52.546Z,46.08
2019-03-26T19:59:23.892Z,58.73
2019-03-26T20:01:55.251Z,99.20
2019-03-26T20:04:26.723Z,108.85
2019-03-26T20:06:58.132Z,108.05
2019-03-26T20:09:29.462Z,60.80
2019-03-26T20:12:00.772Z,45.08
2019-03-26T20:14:33.776Z,46.20
2019-03-26T20:17:05.084Z,37.10
2019-03-26T20:19:36.515Z,46.13
2019-03-26T20:22:08.126Z,40.35
2019-03-26T20:24:40.504Z,47.45
2019-03-26T20:27:11.873Z,55.58
2019-03-26T20:29:43.170Z,51.83
2019-03-26T20:32:14.503Z,44.15
2019-03-26T20:34:45.887Z,67.45
2019-03-26T20:37:17.425Z,93.47
2019-03-26T20:39:48.741Z,57.88
2019-03-26T20:42:20.181Z,46.23
2019-03-26T20:44:51.514Z,43.02
2019-03-26T20:47:22.904Z,40.95
2019-03-26T20:49:54.268Z,42.62
2019-03-26T20:52:25.599Z,44.83
2019-03-26T20:54:56.922Z,40.43
2019-03-26T20:57:28.298Z,50.25
2019-03-26T20:59:59.608Z,40.58
2019-03-26T21:02:30.965Z,37.23
2019-03-26T21:05:02.388Z,44.60
2019-03-26T21:07:33.701Z,40.28
2019-03-26T21:10:06.433Z,45.00
2019-03-26T21:12:37.844Z,46.10
2019-03-26T21:15:09.946Z,40.30
2019-03-26T21:17:41.344Z,46.77
2019-03-26T21:20:12.692Z,49.58
2019-03-26T21:22:44.079Z,42.45
2019-03-26T21:25:15.441Z,52.90
2019-03-26T21:27:47.072Z,52.48
2019-03-26T21:30:18.393Z,51.70
2019-03-26T21:32:49.773Z,48.17
2019-03-26T21:35:21.171Z,50.20
2019-03-26T21:37:52.536Z,49.88
2019-03-26T21:40:23.911Z,49.18
2019-03-26T21:42:55.250Z,50.05
2019-03-26T21:45:36.769Z,54.63
2019-03-26T21:48:08.223Z,52.45
2019-03-26T21:50:39.584Z,63.55
2019-03-26T21:53:10.932Z,80.03
2019-03-26T21:55:42.107Z,66.20
2019-03-26T21:58:13.500Z,61.23
2019-03-26T22:00:44.923Z,53.45
2019-03-26T22:03:16.252Z,58.05
2019-03-26T22:05:48.121Z,59.30
2019-03-26T22:08:19.816Z,53.52
2019-03-26T22:10:51.194Z,41.37
2019-03-26T22:13:22.525Z,42.27
2019-03-26T22:15:53.810Z,51.70
2019-03-26T22:18:26.606Z,38.23
2019-03-26T22:20:58.047Z,43.68
2019-03-26T22:23:29.423Z,45.43
2019-03-26T22:26:00.735Z,38.65
2019-03-26T22:28:31.986Z,32.48
2019-03-26T22:31:03.398Z,40.50
2019-03-26T22:33:34.767Z,40.28
2019-03-26T22:36:06.165Z,43.00
2019-03-26T22:38:37.470Z,39.15
2019-03-26T22:41:08.809Z,42.73
2019-03-26T22:43:41.279Z,43.48
2019-03-26T22:46:12.596Z,44.08
2019-03-26T22:48:43.967Z,42.67
2019-03-26T22:51:15.365Z,45.12
2019-03-26T22:53:46.639Z,40.10
2019-03-26T22:56:17.957Z,43.20
2019-03-26T22:58:49.395Z,39.75
2019-03-26T23:01:20.699Z,45.63
2019-03-26T23:03:51.999Z,47.08
2019-03-26T23:06:23.342Z,42.60
2019-03-26T23:08:54.620Z,42.03
2019-03-26T23:11:25.887Z,44.50
2019-03-26T23:13:57.209Z,46.68
2019-03-26T23:16:28.515Z,36.23
2019-03-26T23:18:59.893Z,51.60
2019-03-26T23:21:31.259Z,47.67
2019-03-26T23:24:02.574Z,77.70
2019-03-26T23:26:34.933Z,98.22
2019-03-26T23:29:08.028Z,78.92
2019-03-26T23:31:39.286Z,82.35
2019-03-26T23:34:10.776Z,86.08
2019-03-26T23:36:42.086Z,87.67
2019-03-26T23:39:13.347Z,107.60
2019-03-26T23:41:44.720Z,106.90
2019-03-26T23:44:25.687Z,95.05
2019-03-26T23:46:48.995Z,101.22
2019-03-26T23:49:20.370Z,97.50
2019-03-26T23:51:51.757Z,104.70
2019-03-26T23:54:23.084Z,146.90
2019-03-26T23:56:54.332Z,147.07
2019-03-26T23:59:25.510Z,154.87
